createdAt,value
2019-03-26T00:00:19.645Z,8.62
2019-03-26T00:01:19.628Z,8.63
2019-03-26T00:02:19.603Z,8.63
2019-03-26T00:03:19.585Z,8.68
2019-03-26T00:04:19.560Z,8.62
2019-03-26T00:05:19.543Z,8.63
2019-03-26T00:06:19.528Z,8.70
2019-03-26T00:07:19.502Z,8.60
2019-03-26T00:08:19.479Z,8.63
2019-03-26T00:09:19.476Z,8.65
2019-03-26T00:10:19.440Z,8.67
2019-03-26T00:11:19.421Z,8.67
2019-03-26T00:12:19.398Z,8.62
2019-03-26T00:13:19.381Z,8.70
2019-03-26T00:14:19.357Z,8.70
2019-03-26T00:15:19.332Z,8.71
2019-03-26T00:16:19.312Z,8.65
2019-03-26T00:17:19.295Z,8.60
2019-03-26T00:18:19.274Z,8.60
2019-03-26T00:19:19.253Z,8.62
2019-03-26T00:20:19.229Z,8.59
2019-03-26T00:21:19.215Z,8.67
2019-03-26T00:22:19.190Z,8.62
2019-03-26T00:23:19.171Z,8.67
2019-03-26T00:24:19.150Z,8.67
2019-03-26T00:25:19.129Z,8.63
2019-03-26T00:26:19.108Z,8.50
2019-03-26T00:27:19.089Z,8.65
2019-03-26T00:28:19.068Z,8.70
2019-03-26T00:29:19.047Z,8.63
2019-03-26T00:30:19.028Z,8.62
2019-03-26T00:31:19.007Z,8.62
2019-03-26T00:32:18.986Z,8.70
2019-03-26T00:33:18.979Z,8.63
2019-03-26T00:34:19.801Z,8.60
2019-03-26T00:35:18.923Z,8.67
2019-03-26T00:36:18.905Z,8.62
2019-03-26T00:37:18.885Z,8.65
2019-03-26T00:38:18.867Z,8.56
2019-03-26T00:39:18.843Z,8.57
2019-03-26T00:40:18.820Z,8.53
2019-03-26T00:41:18.802Z,8.65
2019-03-26T00:42:18.791Z,8.57
2019-03-26T00:43:18.759Z,8.67
2019-03-26T00:44:18.739Z,8.52
2019-03-26T00:45:18.722Z,8.60
2019-03-26T00:46:18.700Z,8.56
2019-03-26T00:47:18.680Z,8.49
2019-03-26T00:48:18.742Z,8.52
2019-03-26T00:49:18.640Z,8.56
2019-03-26T00:50:18.623Z,8.49
2019-03-26T00:51:18.596Z,8.56
2019-03-26T00:52:18.577Z,8.55
2019-03-26T00:53:18.554Z,8.56
2019-03-26T00:54:18.539Z,8.56
2019-03-26T00:55:22.908Z,8.53
2019-03-26T00:56:18.495Z,8.47
2019-03-26T00:57:18.469Z,8.44
2019-03-26T00:58:18.458Z,8.49
2019-03-26T00:59:18.436Z,8.47
2019-03-26T01:00:18.414Z,8.38
2019-03-26T01:01:18.396Z,8.39
2019-03-26T01:02:18.371Z,8.38
2019-03-26T01:03:18.347Z,8.39
2019-03-26T01:04:31.760Z,8.35
2019-03-26T01:05:18.315Z,8.31
2019-03-26T01:06:18.284Z,8.23
2019-03-26T01:07:18.270Z,8.29
2019-03-26T01:08:18.247Z,8.28
2019-03-26T01:09:18.223Z,8.21
2019-03-26T01:10:18.206Z,8.29
2019-03-26T01:11:18.185Z,8.19
2019-03-26T01:12:18.163Z,8.17
2019-03-26T01:13:18.141Z,8.29
2019-03-26T01:14:18.120Z,8.24
2019-03-26T01:15:18.099Z,8.28
2019-03-26T01:16:18.079Z,8.26
2019-03-26T01:17:18.066Z,8.24
2019-03-26T01:18:18.036Z,8.37
2019-03-26T01:19:18.020Z,8.34
2019-03-26T01:20:17.996Z,8.38
2019-03-26T01:21:17.976Z,8.37
2019-03-26T01:22:17.957Z,8.34
2019-03-26T01:23:17.937Z,8.39
2019-03-26T01:24:17.916Z,8.38
2019-03-26T01:25:17.897Z,8.38
2019-03-26T01:26:17.872Z,8.46
2019-03-26T01:27:17.852Z,8.41
2019-03-26T01:28:17.832Z,8.42
2019-03-26T01:29:17.810Z,8.44
2019-03-26T01:30:17.793Z,8.34
2019-03-26T01:31:17.769Z,8.46
2019-03-26T01:32:17.746Z,8.34
2019-03-26T01:33:17.727Z,8.34
2019-03-26T01:34:17.706Z,8.29
2019-03-26T01:35:17.695Z,8.37
2019-03-26T01:36:17.663Z,8.24
2019-03-26T01:37:17.714Z,8.37
2019-03-26T01:38:17.622Z,8.32
2019-03-26T01:39:17.603Z,8.32
2019-03-26T01:40:17.585Z,8.38
2019-03-26T01:41:17.559Z,8.39
2019-03-26T01:42:17.540Z,8.38
2019-03-26T01:43:17.522Z,8.23
2019-03-26T01:44:17.498Z,8.37
2019-03-26T01:45:17.527Z,8.29
2019-03-26T01:46:17.460Z,8.35
2019-03-26T01:47:17.441Z,8.39
2019-03-26T01:48:17.417Z,8.38
2019-03-26T01:49:17.397Z,8.26
2019-03-26T01:50:17.377Z,8.35
2019-03-26T01:51:17.357Z,8.37
2019-03-26T01:52:17.335Z,8.26
2019-03-26T01:53:20.190Z,8.29
2019-03-26T01:54:17.294Z,8.37
2019-03-26T01:55:17.272Z,8.37
2019-03-26T01:56:17.249Z,8.31
2019-03-26T01:57:17.233Z,8.38
2019-03-26T01:58:17.212Z,8.23
2019-03-26T01:59:17.191Z,8.39
2019-03-26T02:00:17.170Z,8.23
2019-03-26T02:01:17.149Z,8.26
2019-03-26T02:02:17.127Z,8.29
2019-03-26T02:03:17.111Z,8.17
2019-03-26T02:04:17.089Z,8.26
2019-03-26T02:05:17.069Z,8.21
2019-03-26T02:06:17.048Z,8.28
2019-03-26T02:07:17.025Z,8.28
2019-03-26T02:08:17.009Z,8.35
2019-03-26T02:09:16.982Z,8.32
2019-03-26T02:10:16.961Z,8.31
2019-03-26T02:11:16.940Z,8.38
2019-03-26T02:12:16.927Z,8.38
2019-03-26T02:13:16.902Z,8.38
2019-03-26T02:14:16.890Z,8.41
2019-03-26T02:15:16.863Z,8.37
2019-03-26T02:16:16.836Z,8.32
2019-03-26T02:17:16.818Z,8.41
2019-03-26T02:18:16.795Z,8.38
2019-03-26T02:19:16.780Z,8.38
2019-03-26T02:20:16.755Z,8.39
2019-03-26T02:21:16.734Z,8.23
2019-03-26T02:22:16.717Z,8.26
2019-03-26T02:23:16.693Z,8.32
2019-03-26T02:24:16.676Z,8.37
2019-03-26T02:25:16.652Z,8.20
2019-03-26T02:26:16.629Z,8.21
2019-03-26T02:27:16.621Z,8.17
2019-03-26T02:28:16.590Z,8.19
2019-03-26T02:29:16.570Z,8.31
2019-03-26T02:30:16.552Z,8.23
2019-03-26T02:31:16.528Z,8.34
2019-03-26T02:32:16.505Z,8.28
2019-03-26T02:33:16.489Z,8.21
2019-03-26T02:34:16.468Z,8.28
2019-03-26T02:35:18.819Z,8.37
2019-03-26T02:36:16.422Z,8.37
2019-03-26T02:37:16.408Z,8.38
2019-03-26T02:38:16.384Z,8.31
2019-03-26T02:39:16.362Z,8.35
2019-03-26T02:40:16.345Z,8.32
2019-03-26T02:41:16.321Z,8.35
2019-03-26T02:42:16.303Z,8.28
2019-03-26T02:43:16.284Z,8.34
2019-03-26T02:44:16.257Z,8.38
2019-03-26T02:45:16.241Z,8.35
2019-03-26T02:46:16.217Z,8.39
2019-03-26T02:47:16.215Z,8.37
2019-03-26T02:48:16.176Z,8.38
2019-03-26T02:49:16.156Z,8.37
2019-03-26T02:50:16.137Z,8.41
2019-03-26T02:51:16.118Z,8.37
2019-03-26T02:52:16.093Z,8.42
2019-03-26T02:53:16.073Z,8.37
2019-03-26T02:54:16.065Z,8.41
2019-03-26T02:55:16.030Z,8.39
2019-03-26T02:56:16.009Z,8.44
2019-03-26T02:57:15.990Z,8.46
2019-03-26T02:58:15.969Z,8.42
2019-03-26T02:59:15.948Z,8.44
2019-03-26T03:00:16.012Z,8.37
2019-03-26T03:01:15.905Z,8.38
2019-03-26T03:02:15.886Z,8.29
2019-03-26T03:03:15.866Z,8.31
2019-03-26T03:04:15.844Z,8.32
2019-03-26T03:05:15.828Z,8.37
2019-03-26T03:06:15.802Z,8.37
2019-03-26T03:07:15.782Z,8.26
2019-03-26T03:08:15.762Z,8.28
2019-03-26T03:09:15.747Z,8.23
2019-03-26T03:10:15.723Z,8.17
2019-03-26T03:11:15.700Z,8.23
2019-03-26T03:12:15.687Z,8.19
2019-03-26T03:13:15.664Z,8.21
2019-03-26T03:14:15.650Z,8.21
2019-03-26T03:15:15.616Z,8.31
2019-03-26T03:16:15.594Z,8.31
2019-03-26T03:17:15.578Z,8.28
2019-03-26T03:18:15.556Z,8.41
2019-03-26T03:19:16.256Z,8.42
2019-03-26T03:20:15.512Z,8.37
2019-03-26T03:21:15.503Z,8.34
2019-03-26T03:22:15.470Z,8.39
2019-03-26T03:23:15.458Z,8.37
2019-03-26T03:24:15.430Z,8.46
2019-03-26T03:25:15.411Z,8.38
2019-03-26T03:26:15.401Z,8.46
2019-03-26T03:27:15.374Z,8.47
2019-03-26T03:28:15.350Z,8.47
2019-03-26T03:29:15.331Z,8.41
2019-03-26T03:30:15.313Z,8.46
2019-03-26T03:31:15.287Z,8.42
2019-03-26T03:32:15.269Z,8.37
2019-03-26T03:33:15.257Z,8.47
2019-03-26T03:34:15.223Z,8.41
2019-03-26T03:35:15.203Z,8.32
2019-03-26T03:36:15.192Z,8.39
2019-03-26T03:37:15.163Z,8.37
2019-03-26T03:38:15.140Z,8.39
2019-03-26T03:39:15.125Z,8.38
2019-03-26T03:40:15.103Z,8.39
2019-03-26T03:41:15.082Z,8.34
2019-03-26T03:42:15.058Z,8.32
2019-03-26T03:43:15.045Z,8.23
2019-03-26T03:44:15.017Z,8.31
2019-03-26T03:45:15.000Z,8.24
2019-03-26T03:46:14.980Z,8.42
2019-03-26T03:47:14.956Z,8.39
2019-03-26T03:48:14.935Z,8.37
2019-03-26T03:49:14.931Z,8.35
2019-03-26T03:50:14.896Z,8.38
2019-03-26T03:51:14.873Z,8.39
2019-03-26T03:52:14.853Z,8.32
2019-03-26T03:53:14.834Z,8.38
2019-03-26T03:54:14.815Z,8.39
2019-03-26T03:55:14.792Z,8.41
2019-03-26T03:56:14.772Z,8.26
2019-03-26T03:57:14.751Z,8.26
2019-03-26T03:58:14.732Z,8.35
2019-03-26T03:59:14.709Z,8.23
2019-03-26T04:00:14.689Z,8.23
2019-03-26T04:01:14.670Z,8.26
2019-03-26T04:02:14.649Z,8.20
2019-03-26T04:03:14.634Z,8.14
2019-03-26T04:04:14.607Z,8.20
2019-03-26T04:05:14.584Z,8.20
2019-03-26T04:06:14.561Z,8.19
2019-03-26T04:07:14.541Z,8.23
2019-03-26T04:08:14.520Z,8.28
2019-03-26T04:09:14.507Z,8.28
2019-03-26T04:10:14.480Z,8.29
2019-03-26T04:11:14.458Z,8.28
2019-03-26T04:12:14.437Z,8.37
2019-03-26T04:13:14.416Z,8.24
2019-03-26T04:14:14.414Z,8.23
2019-03-26T04:15:14.379Z,8.31
2019-03-26T04:16:14.360Z,8.32
2019-03-26T04:17:14.336Z,8.31
2019-03-26T04:18:14.318Z,8.32
2019-03-26T04:19:14.294Z,8.29
2019-03-26T04:20:14.272Z,8.37
2019-03-26T04:21:14.255Z,8.41
2019-03-26T04:22:14.233Z,8.38
2019-03-26T04:23:14.214Z,8.31
2019-03-26T04:24:14.191Z,8.38
2019-03-26T04:25:14.168Z,8.29
2019-03-26T04:26:14.150Z,8.29
2019-03-26T04:27:14.128Z,8.37
2019-03-26T04:28:14.107Z,8.37
2019-03-26T04:29:14.089Z,8.26
2019-03-26T04:30:14.065Z,8.34
2019-03-26T04:31:14.049Z,8.31
2019-03-26T04:32:14.030Z,8.28
2019-03-26T04:33:14.002Z,8.31
2019-03-26T04:34:13.981Z,8.31
2019-03-26T04:35:13.977Z,8.31
2019-03-26T04:36:25.390Z,8.26
2019-03-26T04:37:13.921Z,8.37
2019-03-26T04:38:13.903Z,8.28
2019-03-26T04:39:13.880Z,8.42
2019-03-26T04:40:13.863Z,8.37
2019-03-26T04:41:13.838Z,8.35
2019-03-26T04:42:13.826Z,8.28
2019-03-26T04:43:13.803Z,8.31
2019-03-26T04:44:13.784Z,8.29
2019-03-26T04:45:13.758Z,8.28
2019-03-26T04:46:13.738Z,8.28
2019-03-26T04:47:13.715Z,8.21
2019-03-26T04:48:13.695Z,8.23
2019-03-26T04:49:13.676Z,8.19
2019-03-26T04:50:13.651Z,8.06
2019-03-26T04:51:13.632Z,8.09
2019-03-26T04:52:13.610Z,8.06
2019-03-26T04:53:13.590Z,8.12
2019-03-26T04:54:13.568Z,8.04
2019-03-26T04:55:13.552Z,8.01
2019-03-26T04:56:13.529Z,7.94
2019-03-26T04:57:13.561Z,7.95
2019-03-26T04:58:13.484Z,7.92
2019-03-26T04:59:13.469Z,7.87
2019-03-26T05:00:13.443Z,7.94
2019-03-26T05:01:13.423Z,7.91
2019-03-26T05:02:13.412Z,8.02
2019-03-26T05:03:13.381Z,7.98
2019-03-26T05:04:13.361Z,7.94
2019-03-26T05:05:13.337Z,7.98
2019-03-26T05:06:13.324Z,7.96
2019-03-26T05:07:13.301Z,7.96
2019-03-26T05:08:13.277Z,7.94
2019-03-26T05:09:13.254Z,8.01
2019-03-26T05:10:13.237Z,8.06
2019-03-26T05:11:13.219Z,8.04
2019-03-26T05:12:13.191Z,8.06
2019-03-26T05:13:13.172Z,8.14
2019-03-26T05:14:13.151Z,8.14
2019-03-26T05:15:13.130Z,8.24
2019-03-26T05:16:13.107Z,8.19
2019-03-26T05:17:13.092Z,8.16
2019-03-26T05:18:13.066Z,8.13
2019-03-26T05:19:13.052Z,8.19
2019-03-26T05:20:13.022Z,8.20
2019-03-26T05:21:13.009Z,8.21
2019-03-26T05:22:23.658Z,8.31
2019-03-26T05:23:12.963Z,8.26
2019-03-26T05:24:12.945Z,8.28
2019-03-26T05:25:12.922Z,8.32
2019-03-26T05:26:12.900Z,8.26
2019-03-26T05:27:12.880Z,8.26
2019-03-26T05:28:12.857Z,8.26
2019-03-26T05:29:12.837Z,8.34
2019-03-26T05:30:12.820Z,8.41
2019-03-26T05:31:12.796Z,8.24
2019-03-26T05:32:12.773Z,8.35
2019-03-26T05:33:12.754Z,8.44
2019-03-26T05:34:12.741Z,8.38
2019-03-26T05:35:12.716Z,8.39
2019-03-26T05:36:12.695Z,8.42
2019-03-26T05:37:12.675Z,8.37
2019-03-26T05:38:12.655Z,8.47
2019-03-26T05:39:12.636Z,8.47
2019-03-26T05:40:12.612Z,8.38
2019-03-26T05:41:12.599Z,8.41
2019-03-26T05:42:12.572Z,8.49
2019-03-26T05:43:12.552Z,8.41
2019-03-26T05:44:12.529Z,8.49
2019-03-26T05:45:12.510Z,8.44
2019-03-26T05:46:12.490Z,8.50
2019-03-26T05:47:12.468Z,8.60
2019-03-26T05:48:12.446Z,8.57
2019-03-26T05:49:12.432Z,8.50
2019-03-26T05:50:12.405Z,8.49
2019-03-26T05:51:12.386Z,8.50
2019-03-26T05:52:12.366Z,8.44
2019-03-26T05:53:12.353Z,8.55
2019-03-26T05:54:12.324Z,8.59
2019-03-26T05:55:12.308Z,8.59
2019-03-26T05:56:12.287Z,8.60
2019-03-26T05:57:12.271Z,8.46
2019-03-26T05:58:12.244Z,8.46
2019-03-26T05:59:12.226Z,8.49
2019-03-26T06:00:12.202Z,8.42
2019-03-26T06:01:12.182Z,8.42
2019-03-26T06:02:15.158Z,8.49
2019-03-26T06:03:12.139Z,8.59
2019-03-26T06:04:12.117Z,8.47
2019-03-26T06:05:12.097Z,8.52
2019-03-26T06:06:12.080Z,8.55
2019-03-26T06:07:12.058Z,8.56
2019-03-26T06:08:12.034Z,8.60
2019-03-26T06:09:12.014Z,8.55
2019-03-26T06:10:11.996Z,8.63
2019-03-26T06:11:11.975Z,8.65
2019-03-26T06:12:11.960Z,8.62
2019-03-26T06:13:11.934Z,8.56
2019-03-26T06:14:11.919Z,8.62
2019-03-26T06:15:11.895Z,8.57
2019-03-26T06:16:11.873Z,8.67
2019-03-26T06:17:11.855Z,8.63
2019-03-26T06:18:11.844Z,8.65
2019-03-26T06:19:11.814Z,8.71
2019-03-26T06:20:11.797Z,8.67
2019-03-26T06:21:11.777Z,8.75
2019-03-26T06:22:11.749Z,8.67
2019-03-26T06:23:11.734Z,8.65
2019-03-26T06:24:11.708Z,8.67
2019-03-26T06:25:11.693Z,8.71
2019-03-26T06:26:11.670Z,8.63
2019-03-26T06:27:11.649Z,8.70
2019-03-26T06:28:11.630Z,8.63
2019-03-26T06:29:11.606Z,8.56
2019-03-26T06:30:11.592Z,8.65
2019-03-26T06:31:11.566Z,8.62
2019-03-26T06:32:11.544Z,8.63
2019-03-26T06:33:11.523Z,8.50
2019-03-26T06:34:11.506Z,8.57
2019-03-26T06:35:11.492Z,8.57
2019-03-26T06:36:11.462Z,8.65
2019-03-26T06:37:17.835Z,8.63
2019-03-26T06:38:11.421Z,8.62
2019-03-26T06:39:11.403Z,8.60
2019-03-26T06:40:11.388Z,8.67
2019-03-26T06:41:11.362Z,8.67
2019-03-26T06:42:11.340Z,8.62
2019-03-26T06:43:11.328Z,8.72
2019-03-26T06:44:11.300Z,8.67
2019-03-26T06:45:11.290Z,8.63
2019-03-26T06:46:11.267Z,8.77
2019-03-26T06:47:11.242Z,8.63
2019-03-26T06:48:11.219Z,8.68
2019-03-26T06:49:11.201Z,8.78
2019-03-26T06:50:11.184Z,8.74
2019-03-26T06:51:11.158Z,8.68
2019-03-26T06:52:11.145Z,8.77
2019-03-26T06:53:11.116Z,8.74
2019-03-26T06:54:11.094Z,8.75
2019-03-26T06:55:11.084Z,8.62
2019-03-26T06:56:11.056Z,8.65
2019-03-26T06:57:11.034Z,8.60
2019-03-26T06:58:11.013Z,8.68
2019-03-26T06:59:10.994Z,8.63
2019-03-26T07:00:10.976Z,8.70
2019-03-26T07:01:10.955Z,8.71
2019-03-26T07:02:10.936Z,8.59
2019-03-26T07:03:10.916Z,8.65
2019-03-26T07:04:10.894Z,8.62
2019-03-26T07:05:10.872Z,8.62
2019-03-26T07:06:10.855Z,8.65
2019-03-26T07:07:10.836Z,8.81
2019-03-26T07:08:10.812Z,8.67
2019-03-26T07:09:10.801Z,8.80
2019-03-26T07:10:10.769Z,8.68
2019-03-26T07:11:10.752Z,8.70
2019-03-26T07:12:10.729Z,8.77
2019-03-26T07:13:10.705Z,8.89
2019-03-26T07:14:10.687Z,8.83
2019-03-26T07:15:10.667Z,8.89
2019-03-26T07:16:10.646Z,8.80
2019-03-26T07:17:10.633Z,8.63
2019-03-26T07:18:10.608Z,8.68
2019-03-26T07:19:10.592Z,8.71
2019-03-26T07:20:10.655Z,8.83
2019-03-26T07:21:10.550Z,8.93
2019-03-26T07:22:10.526Z,8.86
2019-03-26T07:23:10.508Z,8.88
2019-03-26T07:24:10.490Z,8.88
2019-03-26T07:25:10.466Z,8.89
2019-03-26T07:26:10.450Z,8.86
2019-03-26T07:27:10.424Z,8.92
2019-03-26T07:28:10.404Z,8.99
2019-03-26T07:29:10.382Z,8.96
2019-03-26T07:30:10.366Z,8.98
2019-03-26T07:31:10.344Z,8.96
2019-03-26T07:32:10.319Z,9.01
2019-03-26T07:33:10.305Z,8.98
2019-03-26T07:34:10.291Z,9.08
2019-03-26T07:35:10.261Z,8.96
2019-03-26T07:36:10.239Z,9.03
2019-03-26T07:37:10.219Z,9.11
2019-03-26T07:38:10.206Z,9.11
2019-03-26T07:39:10.187Z,9.11
2019-03-26T07:40:10.165Z,9.12
2019-03-26T07:41:10.143Z,9.06
2019-03-26T07:42:10.130Z,9.08
2019-03-26T07:43:10.105Z,9.16
2019-03-26T07:44:10.086Z,9.19
2019-03-26T07:45:10.064Z,9.24
2019-03-26T07:46:10.042Z,9.23
2019-03-26T07:47:10.021Z,9.23
2019-03-26T07:48:09.998Z,9.24
2019-03-26T07:49:09.982Z,9.27
2019-03-26T07:50:09.967Z,9.34
2019-03-26T07:51:09.949Z,9.29
2019-03-26T07:52:09.922Z,9.45
2019-03-26T07:53:09.901Z,9.40
2019-03-26T07:54:09.881Z,9.42
2019-03-26T07:55:09.862Z,9.52
2019-03-26T07:56:09.842Z,9.63
2019-03-26T07:57:09.825Z,9.63
2019-03-26T07:58:09.800Z,9.66
2019-03-26T07:59:09.780Z,9.84
2019-03-26T08:00:09.761Z,9.98
2019-03-26T08:01:09.740Z,10.20
2019-03-26T08:02:09.720Z,10.39
2019-03-26T08:03:09.700Z,10.58
2019-03-26T08:04:12.464Z,10.64
2019-03-26T08:05:09.661Z,10.82
2019-03-26T08:06:09.648Z,10.87
2019-03-26T08:07:09.627Z,10.90
2019-03-26T08:08:09.606Z,10.80
2019-03-26T08:09:09.631Z,10.83
2019-03-26T08:10:09.572Z,10.98
2019-03-26T08:11:09.554Z,10.93
2019-03-26T08:12:09.537Z,10.91
2019-03-26T08:13:09.521Z,10.85
2019-03-26T08:14:09.633Z,10.83
2019-03-26T08:15:09.507Z,10.87
2019-03-26T08:16:09.459Z,11.00
2019-03-26T08:17:09.457Z,10.86
2019-03-26T08:18:09.425Z,11.09
2019-03-26T08:19:09.412Z,11.48
2019-03-26T08:20:12.385Z,11.52
2019-03-26T08:21:09.376Z,11.16
2019-03-26T08:22:09.431Z,11.23
2019-03-26T08:23:09.346Z,11.22
2019-03-26T08:24:09.318Z,11.34
2019-03-26T08:25:09.304Z,11.31
2019-03-26T08:26:09.289Z,11.20
2019-03-26T08:27:09.281Z,11.16
2019-03-26T08:28:09.255Z,10.94
2019-03-26T08:29:09.240Z,10.85
2019-03-26T08:30:09.213Z,10.75
2019-03-26T08:31:09.194Z,10.65
2019-03-26T08:32:09.175Z,10.60
2019-03-26T08:33:09.155Z,10.67
2019-03-26T08:34:09.142Z,10.62
2019-03-26T08:35:09.121Z,10.60
2019-03-26T08:36:09.100Z,10.65
2019-03-26T08:37:09.083Z,10.54
2019-03-26T08:38:12.751Z,10.64
2019-03-26T08:39:09.051Z,10.72
2019-03-26T08:40:09.032Z,11.00
2019-03-26T08:41:09.013Z,11.56
2019-03-26T08:42:08.994Z,11.62
2019-03-26T08:43:08.978Z,11.48
2019-03-26T08:44:08.958Z,11.31
2019-03-26T08:45:08.939Z,11.16
2019-03-26T08:46:08.999Z,11.19
2019-03-26T08:47:08.906Z,11.40
2019-03-26T08:48:08.887Z,11.54
2019-03-26T08:49:08.870Z,11.49
2019-03-26T08:50:08.851Z,11.56
2019-03-26T08:51:08.844Z,11.64
2019-03-26T08:52:08.820Z,11.54
2019-03-26T08:53:08.804Z,11.27
2019-03-26T08:54:08.786Z,11.03
2019-03-26T08:55:08.768Z,10.95
2019-03-26T08:56:08.752Z,10.98
2019-03-26T08:57:08.730Z,10.95
2019-03-26T08:58:08.716Z,11.04
2019-03-26T08:59:08.695Z,10.98
2019-03-26T09:00:08.681Z,10.97
2019-03-26T09:01:08.660Z,10.73
2019-03-26T09:02:08.643Z,10.75
2019-03-26T09:03:08.625Z,10.72
2019-03-26T09:04:08.603Z,10.62
2019-03-26T09:05:08.598Z,10.68
2019-03-26T09:06:08.574Z,10.65
2019-03-26T09:07:10.962Z,10.65
2019-03-26T09:08:08.532Z,10.70
2019-03-26T09:09:08.518Z,10.52
2019-03-26T09:10:08.501Z,10.52
2019-03-26T09:11:08.490Z,10.48
2019-03-26T09:12:08.457Z,10.45
2019-03-26T09:13:08.439Z,10.39
2019-03-26T09:14:08.424Z,10.38
2019-03-26T09:15:08.407Z,10.41
2019-03-26T09:16:08.389Z,10.27
2019-03-26T09:17:08.365Z,10.26
2019-03-26T09:18:08.346Z,10.18
2019-03-26T09:19:08.332Z,10.12
2019-03-26T09:20:08.310Z,9.96
2019-03-26T09:21:08.290Z,9.93
2019-03-26T09:22:08.274Z,10.01
2019-03-26T09:23:08.258Z,9.96
2019-03-26T09:24:08.236Z,10.05
2019-03-26T09:25:08.214Z,10.05
2019-03-26T09:26:08.196Z,10.12
2019-03-26T09:27:08.181Z,10.16
2019-03-26T09:28:08.157Z,10.20
2019-03-26T09:29:08.143Z,10.17
2019-03-26T09:30:08.126Z,10.27
2019-03-26T09:31:08.103Z,10.21
2019-03-26T09:32:08.082Z,10.05
2019-03-26T09:33:08.064Z,9.99
2019-03-26T09:34:09.893Z,9.90
2019-03-26T09:35:08.025Z,9.85
2019-03-26T09:36:08.007Z,9.90
2019-03-26T09:37:07.983Z,9.90
2019-03-26T09:38:07.964Z,9.90
2019-03-26T09:39:07.947Z,9.85
2019-03-26T09:40:07.924Z,9.80
2019-03-26T09:41:07.912Z,9.87
2019-03-26T09:42:07.887Z,9.83
2019-03-26T09:43:07.868Z,9.88
2019-03-26T09:44:07.850Z,9.83
2019-03-26T09:45:07.829Z,9.67
2019-03-26T09:46:07.812Z,9.75
2019-03-26T09:47:15.959Z,9.73
2019-03-26T09:48:07.778Z,9.90
2019-03-26T09:49:07.759Z,9.90
2019-03-26T09:50:07.736Z,9.90
2019-03-26T09:51:10.662Z,9.91
2019-03-26T09:52:07.693Z,9.94
2019-03-26T09:53:07.676Z,10.02
2019-03-26T09:54:07.655Z,10.03
2019-03-26T09:55:07.640Z,10.12
2019-03-26T09:56:07.619Z,10.16
2019-03-26T09:57:07.609Z,10.23
2019-03-26T09:58:07.583Z,10.28
2019-03-26T09:59:07.568Z,10.36
2019-03-26T10:00:07.547Z,10.36
2019-03-26T10:01:07.521Z,10.36
2019-03-26T10:02:07.501Z,10.35
2019-03-26T10:03:07.486Z,10.42
2019-03-26T10:04:07.463Z,10.36
2019-03-26T10:05:07.443Z,10.41
2019-03-26T10:06:07.430Z,10.49
2019-03-26T10:07:20.512Z,10.34
2019-03-26T10:08:07.388Z,10.36
2019-03-26T10:09:07.368Z,10.38
2019-03-26T10:10:07.345Z,10.28
2019-03-26T10:11:07.335Z,10.18
2019-03-26T10:12:07.307Z,10.20
2019-03-26T10:13:07.294Z,10.26
2019-03-26T10:14:07.281Z,10.01
2019-03-26T10:15:07.269Z,9.90
2019-03-26T10:16:07.232Z,9.93
2019-03-26T10:17:07.215Z,9.96
2019-03-26T10:18:07.199Z,10.02
2019-03-26T10:19:07.176Z,9.91
2019-03-26T10:20:07.155Z,9.96
2019-03-26T10:21:07.136Z,10.02
2019-03-26T10:22:07.120Z,10.10
2019-03-26T10:23:07.101Z,10.05
2019-03-26T10:24:07.081Z,10.17
2019-03-26T10:25:10.481Z,10.26
2019-03-26T10:26:07.040Z,10.31
2019-03-26T10:27:07.020Z,10.42
2019-03-26T10:28:06.999Z,10.57
2019-03-26T10:29:19.051Z,10.76
2019-03-26T10:30:06.965Z,10.72
2019-03-26T10:31:06.954Z,10.83
2019-03-26T10:32:06.923Z,10.97
2019-03-26T10:33:06.904Z,10.97
2019-03-26T10:34:06.890Z,10.94
2019-03-26T10:35:06.870Z,10.98
2019-03-26T10:36:06.851Z,11.03
2019-03-26T10:37:06.832Z,10.97
2019-03-26T10:38:06.811Z,11.13
2019-03-26T10:39:06.794Z,11.19
2019-03-26T10:40:06.774Z,11.12
2019-03-26T10:41:06.754Z,11.12
2019-03-26T10:42:07.056Z,11.23
2019-03-26T10:43:06.722Z,11.34
2019-03-26T10:44:06.804Z,11.41
2019-03-26T10:45:06.687Z,11.45
2019-03-26T10:46:06.660Z,11.28
2019-03-26T10:47:06.649Z,11.31
2019-03-26T10:48:06.625Z,11.40
2019-03-26T10:49:06.619Z,11.48
2019-03-26T10:50:06.595Z,11.49
2019-03-26T10:51:06.572Z,11.51
2019-03-26T10:52:06.556Z,11.62
2019-03-26T10:53:06.546Z,11.74
2019-03-26T10:54:06.518Z,11.88
2019-03-26T10:55:06.502Z,11.87
2019-03-26T10:56:06.479Z,11.85
2019-03-26T10:57:06.472Z,11.76
2019-03-26T10:58:06.448Z,11.77
2019-03-26T10:59:06.435Z,11.70
2019-03-26T11:00:06.412Z,11.88
2019-03-26T11:01:06.392Z,12.05
2019-03-26T11:02:06.374Z,12.18
2019-03-26T11:03:06.357Z,12.11
2019-03-26T11:04:07.881Z,12.14
2019-03-26T11:05:06.319Z,12.33
2019-03-26T11:06:06.308Z,12.36
2019-03-26T11:07:06.289Z,12.15
2019-03-26T11:08:06.270Z,12.08
2019-03-26T11:09:19.985Z,12.17
2019-03-26T11:10:06.236Z,12.35
2019-03-26T11:11:06.225Z,12.47
2019-03-26T11:12:06.203Z,12.53
2019-03-26T11:13:06.186Z,12.59
2019-03-26T11:14:06.174Z,12.48
2019-03-26T11:15:06.158Z,12.32
2019-03-26T11:16:06.128Z,12.14
2019-03-26T11:17:06.113Z,12.07
2019-03-26T11:18:06.099Z,12.07
2019-03-26T11:19:06.083Z,12.15
2019-03-26T11:20:06.069Z,12.11
2019-03-26T11:21:06.042Z,12.07
2019-03-26T11:22:06.030Z,11.96
2019-03-26T11:23:06.018Z,11.88
2019-03-26T11:24:06.001Z,11.93
2019-03-26T11:25:05.983Z,11.85
2019-03-26T11:26:05.955Z,11.74
2019-03-26T11:27:05.938Z,11.69
2019-03-26T11:28:05.976Z,11.73
2019-03-26T11:29:05.905Z,11.61
2019-03-26T11:30:05.886Z,11.62
2019-03-26T11:31:05.865Z,11.51
2019-03-26T11:32:05.845Z,11.52
2019-03-26T11:33:05.829Z,11.52
2019-03-26T11:34:05.823Z,11.56
2019-03-26T11:35:05.795Z,11.51
2019-03-26T11:36:05.773Z,11.43
2019-03-26T11:37:05.757Z,11.34
2019-03-26T11:38:05.743Z,11.20
2019-03-26T11:39:05.724Z,11.38
2019-03-26T11:40:05.707Z,11.36
2019-03-26T11:41:05.684Z,11.27
2019-03-26T11:42:05.669Z,11.33
2019-03-26T11:43:05.648Z,11.37
2019-03-26T11:44:05.630Z,11.34
2019-03-26T11:45:05.609Z,11.43
2019-03-26T11:46:05.591Z,11.46
2019-03-26T11:47:05.572Z,11.45
2019-03-26T11:48:05.557Z,11.41
2019-03-26T11:49:05.549Z,11.28
2019-03-26T11:50:05.520Z,11.34
2019-03-26T11:51:05.500Z,11.16
2019-03-26T11:52:05.488Z,11.01
2019-03-26T11:53:05.471Z,11.05
2019-03-26T11:54:05.445Z,10.94
2019-03-26T11:55:05.426Z,10.91
2019-03-26T11:56:05.408Z,10.76
2019-03-26T11:57:05.397Z,10.67
2019-03-26T11:58:05.374Z,10.61
2019-03-26T11:59:05.354Z,10.55
2019-03-26T12:00:05.338Z,10.65
2019-03-26T12:01:05.312Z,10.65
2019-03-26T12:02:05.302Z,10.48
2019-03-26T12:03:05.292Z,10.49
2019-03-26T12:04:05.273Z,10.57
2019-03-26T12:05:05.243Z,10.70
2019-03-26T12:06:05.223Z,10.64
2019-03-26T12:07:05.205Z,10.72
2019-03-26T12:08:05.184Z,10.73
2019-03-26T12:09:05.165Z,10.76
2019-03-26T12:10:05.146Z,10.72
2019-03-26T12:11:05.132Z,10.79
2019-03-26T12:12:05.128Z,10.79
2019-03-26T12:13:05.098Z,10.97
2019-03-26T12:14:05.074Z,11.03
2019-03-26T12:15:05.054Z,11.08
2019-03-26T12:16:05.041Z,11.16
2019-03-26T12:17:05.022Z,11.13
2019-03-26T12:18:05.008Z,11.15
2019-03-26T12:19:04.976Z,11.12
2019-03-26T12:20:04.957Z,11.11
2019-03-26T12:21:04.937Z,11.27
2019-03-26T12:22:04.922Z,11.22
2019-03-26T12:23:04.904Z,11.23
2019-03-26T12:24:04.883Z,11.23
2019-03-26T12:25:04.871Z,11.52
2019-03-26T12:26:04.851Z,11.37
2019-03-26T12:27:04.832Z,11.34
2019-03-26T12:28:04.812Z,11.38
2019-03-26T12:29:04.794Z,11.22
2019-03-26T12:30:04.779Z,11.19
2019-03-26T12:31:04.764Z,10.97
2019-03-26T12:32:04.736Z,10.95
2019-03-26T12:33:04.726Z,11.00
2019-03-26T12:34:04.700Z,10.93
2019-03-26T12:35:04.682Z,10.94
2019-03-26T12:36:04.660Z,10.95
2019-03-26T12:37:04.653Z,11.00
2019-03-26T12:38:04.631Z,10.91
2019-03-26T12:39:04.627Z,10.97
2019-03-26T12:40:04.589Z,10.90
2019-03-26T12:41:04.569Z,10.97
2019-03-26T12:42:04.563Z,11.05
2019-03-26T12:43:04.533Z,10.97
2019-03-26T12:44:04.514Z,10.97
2019-03-26T12:45:06.911Z,11.04
2019-03-26T12:46:04.475Z,10.98
2019-03-26T12:47:04.458Z,11.09
2019-03-26T12:48:04.438Z,11.13
2019-03-26T12:49:04.422Z,11.12
2019-03-26T12:50:04.411Z,11.23
2019-03-26T12:51:04.390Z,11.31
2019-03-26T12:52:04.365Z,11.25
2019-03-26T12:53:04.352Z,11.12
2019-03-26T12:54:04.333Z,11.18
2019-03-26T12:55:04.314Z,11.11
2019-03-26T12:56:04.292Z,11.15
2019-03-26T12:57:04.275Z,11.05
2019-03-26T12:58:04.258Z,11.09
2019-03-26T12:59:04.237Z,11.09
2019-03-26T13:00:04.218Z,11.01
2019-03-26T13:01:04.196Z,11.16
2019-03-26T13:02:04.184Z,11.22
2019-03-26T13:03:04.163Z,11.18
2019-03-26T13:04:12.588Z,11.12
2019-03-26T13:05:04.132Z,11.27
2019-03-26T13:06:04.111Z,11.20
2019-03-26T13:07:04.089Z,11.27
2019-03-26T13:08:04.071Z,11.28
2019-03-26T13:09:04.047Z,11.19